createdAt,value
2022-10-05T00:00:48.662Z,97183.84
2022-10-05T00:03:15.501Z,97175.81
2022-10-05T00:05:45.640Z,97175.47
2022-10-05T00:08:21.812Z,97172.03
2022-10-05T00:10:49.832Z,97156.63
2022-10-05T00:13:28.324Z,97154.03
2022-10-05T00:16:11.389Z,97143.84
2022-10-05T00:18:39.545Z,97149.44
2022-10-05T00:21:20.038Z,97141.84
2022-10-05T00:23:48.488Z,97140.22
2022-10-05T00:26:25.878Z,97130.06
2022-10-05T00:28:54.132Z,97138.53
2022-10-05T00:31:26.654Z,97140.19
2022-10-05T00:33:55.009Z,97135.88
2022-10-05T00:36:23.338Z,97133.91
2022-10-05T00:38:51.026Z,97134.56
2022-10-05T00:41:59.851Z,97134.56
2022-10-05T00:44:36.837Z,97130.66
2022-10-05T00:47:44.666Z,97137.88
2022-10-05T00:50:23.716Z,97136.22
2022-10-05T00:53:05.309Z,97129.03
2022-10-05T00:56:03.120Z,97131.66
2022-10-05T00:59:00.482Z,97117.78
2022-10-05T01:01:34.520Z,97118.44
2022-10-05T01:04:56.531Z,97106.19
2022-10-05T01:07:56.544Z,97106.56
2022-10-05T01:10:38.892Z,97100.00
2022-10-05T01:13:41.551Z,97099.84
2022-10-05T01:16:23.929Z,97103.59
2022-10-05T01:19:39.333Z,97105.25
2022-10-05T01:22:37.088Z,97088.22
2022-10-05T01:25:49.134Z,97092.31
2022-10-05T01:28:30.917Z,97093.09
2022-10-05T01:31:27.238Z,97087.88
2022-10-05T01:34:13.638Z,97082.63
2022-10-05T01:37:04.681Z,97097.97
2022-10-05T01:39:54.782Z,97101.91
2022-10-05T01:42:41.216Z,97102.44
2022-10-05T01:45:27.460Z,97086.91
2022-10-05T01:48:22.594Z,97094.09
2022-10-05T01:51:20.292Z,97090.50
2022-10-05T01:54:09.088Z,97085.25
2022-10-05T01:57:06.853Z,97082.97
2022-10-05T01:59:39.626Z,97088.53
2022-10-05T02:02:25.933Z,97087.88
2022-10-05T02:05:08.812Z,97090.03
2022-10-05T02:07:38.262Z,97085.25
2022-10-05T02:10:33.269Z,97084.63
2022-10-05T02:13:13.656Z,97081.66
2022-10-05T02:15:55.233Z,97070.31
2022-10-05T02:18:30.101Z,97060.47
2022-10-05T02:20:59.441Z,97066.84
2022-10-05T02:23:32.821Z,97066.53
2022-10-05T02:26:01.483Z,97070.78
2022-10-05T02:28:45.796Z,97072.78
2022-10-05T02:31:31.380Z,97074.06
2022-10-05T02:34:36.724Z,97061.44
2022-10-05T02:37:44.136Z,97063.69
2022-10-05T02:41:04.948Z,97054.38
2022-10-05T02:44:02.789Z,97058.47
2022-10-05T02:47:23.808Z,97047.88
2022-10-05T02:50:15.333Z,97065.97
2022-10-05T02:53:03.616Z,97070.69
2022-10-05T02:55:45.833Z,97072.03
2022-10-05T02:58:19.400Z,97071.88
2022-10-05T03:00:54.572Z,97073.72
2022-10-05T03:03:34.054Z,97077.47
2022-10-05T03:06:05.346Z,97073.94
2022-10-05T03:08:38.203Z,97068.22
2022-10-05T03:11:21.488Z,97071.78
2022-10-05T03:14:10.202Z,97063.47
2022-10-05T03:17:07.000Z,97067.50
2022-10-05T03:19:43.761Z,97072.44
2022-10-05T03:22:50.200Z,97071.78
2022-10-05T03:25:52.039Z,97061.31
2022-10-05T03:28:55.253Z,97061.78
2022-10-05T03:32:01.060Z,97071.88
2022-10-05T03:35:02.377Z,97065.19
2022-10-05T03:38:22.532Z,97059.28
2022-10-05T03:41:33.381Z,97054.69
2022-10-05T03:44:24.260Z,97055.63
2022-10-05T03:47:15.024Z,97050.09
2022-10-05T03:50:17.505Z,97051.56
2022-10-05T03:53:04.051Z,97053.22
2022-10-05T03:55:45.674Z,97057.47
2022-10-05T03:58:26.366Z,97048.97
2022-10-05T04:01:06.272Z,97048.63
2022-10-05T04:03:36.570Z,97049.25
2022-10-05T04:06:36.987Z,97053.19
2022-10-05T04:09:26.522Z,97047.13
2022-10-05T04:12:28.706Z,97050.22
2022-10-05T04:15:05.038Z,97046.59
2022-10-05T04:17:42.792Z,97049.13
2022-10-05T04:20:36.517Z,97040.75
2022-10-05T04:23:38.443Z,97048.09
2022-10-05T04:26:51.244Z,97043.16
2022-10-05T04:29:45.137Z,97044.00
2022-10-05T04:32:31.316Z,97043.16
2022-10-05T04:35:53.661Z,97045.97
2022-10-05T04:38:59.269Z,97047.88
2022-10-05T04:42:25.723Z,97050.34
2022-10-05T04:45:11.236Z,97053.59
2022-10-05T04:47:46.852Z,97058.63
2022-10-05T04:50:48.092Z,97062.06
2022-10-05T04:53:56.267Z,97067.00
2022-10-05T04:56:40.288Z,97065.41
2022-10-05T04:59:13.089Z,97069.03
2022-10-05T05:02:19.790Z,97063.22
2022-10-05T05:05:19.865Z,97065.34
2022-10-05T05:08:25.321Z,97067.00
2022-10-05T05:11:16.186Z,97070.91
2022-10-05T05:14:02.793Z,97073.59
2022-10-05T05:16:42.066Z,97078.91
2022-10-05T05:19:40.278Z,97082.50
2022-10-05T05:22:27.766Z,97076.00
2022-10-05T05:25:13.187Z,97078.59
2022-10-05T05:27:47.457Z,97074.69
2022-10-05T05:30:24.082Z,97072.31
2022-10-05T05:33:19.607Z,97076.56
2022-10-05T05:36:01.666Z,97070.38
2022-10-05T05:38:39.854Z,97070.31
2022-10-05T05:41:43.649Z,97066.13
2022-10-05T05:44:26.845Z,97072.47
2022-10-05T05:47:14.210Z,97068.03
2022-10-05T05:50:21.113Z,97070.44
2022-10-05T05:52:55.205Z,97064.31
2022-10-05T05:55:47.512Z,97076.88
2022-10-05T05:58:17.222Z,97080.22
2022-10-05T06:01:32.588Z,97078.56
2022-10-05T06:04:41.762Z,97078.94
2022-10-05T06:07:18.057Z,97085.53
2022-10-05T06:10:06.100Z,97090.50
2022-10-05T06:12:42.003Z,97083.63
2022-10-05T06:15:46.214Z,97091.19
2022-10-05T06:18:17.463Z,97094.44
2022-10-05T06:21:02.878Z,97090.03
2022-10-05T06:24:02.427Z,97088.03
2022-10-05T06:27:06.408Z,97083.25
2022-10-05T06:30:00.935Z,97081.72
2022-10-05T06:32:52.457Z,97083.38
2022-10-05T06:35:46.996Z,97081.69
2022-10-05T06:39:03.671Z,97083.50
2022-10-05T06:42:07.338Z,97080.38
2022-10-05T06:44:49.296Z,97085.25
2022-10-05T06:47:36.144Z,97070.56
2022-10-05T06:50:24.602Z,97086.22
2022-10-05T06:53:17.021Z,97089.25
2022-10-05T06:56:18.844Z,97092.94
2022-10-05T06:59:06.488Z,97095.38
2022-10-05T07:02:26.881Z,97086.47
2022-10-05T07:05:11.608Z,97086.09
2022-10-05T07:08:01.142Z,97093.53
2022-10-05T07:11:28.880Z,97097.16
2022-10-05T07:14:11.799Z,97102.59
2022-10-05T07:17:28.342Z,97113.13
2022-10-05T07:20:03.761Z,97110.38
2022-10-05T07:23:09.122Z,97107.28
2022-10-05T07:26:03.658Z,97104.69
2022-10-05T07:28:41.256Z,97118.44
2022-10-05T07:31:25.909Z,97114.09
2022-10-05T07:34:44.334Z,97120.34
2022-10-05T07:37:54.640Z,97120.38
2022-10-05T07:40:29.823Z,97124.03
2022-10-05T07:43:40.306Z,97120.47
2022-10-05T07:47:00.758Z,97134.25
2022-10-05T07:50:04.667Z,97141.09
2022-10-05T07:52:49.320Z,97141.50
2022-10-05T07:55:25.701Z,97145.84
2022-10-05T07:58:23.622Z,97145.50
2022-10-05T08:00:56.354Z,97144.91
2022-10-05T08:03:56.552Z,97143.34
2022-10-05T08:06:26.978Z,97150.81
2022-10-05T08:09:13.454Z,97149.22
2022-10-05T08:12:28.023Z,97143.78
2022-10-05T08:14:57.658Z,97149.69
2022-10-05T08:17:55.831Z,97143.28
2022-10-05T08:20:48.589Z,97141.06
2022-10-05T08:23:44.564Z,97139.44
2022-10-05T08:26:38.654Z,97147.00
2022-10-05T08:29:30.981Z,97152.53
2022-10-05T08:32:03.677Z,97141.16
2022-10-05T08:35:14.948Z,97148.47
2022-10-05T08:37:44.232Z,97146.34
2022-10-05T08:40:39.894Z,97142.28
2022-10-05T08:44:25.438Z,97142.78
2022-10-05T08:47:16.881Z,97146.59
2022-10-05T08:50:10.410Z,97154.66
2022-10-05T08:53:40.213Z,97147.94
2022-10-05T08:56:29.055Z,97151.75
2022-10-05T08:59:45.498Z,97151.00
2022-10-05T09:02:42.884Z,97147.31
2022-10-05T09:05:43.444Z,97152.16
2022-10-05T09:08:44.217Z,97151.75
2022-10-05T09:11:13.349Z,97147.81
2022-10-05T09:14:13.488Z,97151.97
2022-10-05T09:17:15.573Z,97150.09
2022-10-05T09:20:27.021Z,97154.50
2022-10-05T09:23:18.020Z,97148.38
2022-10-05T09:26:24.089Z,97146.47
2022-10-05T09:29:34.635Z,97145.16
2022-10-05T09:32:54.465Z,97141.13
2022-10-05T09:35:53.404Z,97142.06
2022-10-05T09:38:40.615Z,97143.56
2022-10-05T09:41:34.268Z,97139.88
2022-10-05T09:44:33.391Z,97142.41
2022-10-05T09:47:17.228Z,97138.66
2022-10-05T09:50:30.769Z,97135.19
2022-10-05T09:53:47.098Z,97143.53
2022-10-05T09:56:22.547Z,97142.56
2022-10-05T09:59:25.221Z,97147.38
2022-10-05T10:02:17.426Z,97140.25
2022-10-05T10:05:25.921Z,97139.06
2022-10-05T10:08:43.584Z,97129.19
2022-10-05T10:11:59.625Z,97132.88
2022-10-05T10:15:00.591Z,97133.38
2022-10-05T10:18:10.332Z,97121.56
2022-10-05T10:21:01.663Z,97120.78
2022-10-05T10:24:24.531Z,97116.09
2022-10-05T10:27:18.760Z,97121.75
2022-10-05T10:30:27.589Z,97121.44
2022-10-05T10:33:36.341Z,97110.25
2022-10-05T10:36:37.686Z,97119.34
2022-10-05T10:39:45.144Z,97120.66
2022-10-05T10:42:49.257Z,97119.03
2022-10-05T10:45:28.697Z,97116.38
2022-10-05T10:48:23.731Z,97121.22
2022-10-05T10:51:04.493Z,97119.59
2022-10-05T10:54:04.801Z,97109.81
2022-10-05T10:57:15.836Z,97113.41
2022-10-05T11:00:21.298Z,97111.44
2022-10-05T11:03:28.340Z,97096.84
2022-10-05T11:06:26.146Z,97093.69
2022-10-05T11:09:25.515Z,97094.44
2022-10-05T11:12:39.771Z,97090.88
2022-10-05T11:15:43.855Z,97093.88
2022-10-05T11:18:28.912Z,97094.69
2022-10-05T11:21:26.090Z,97087.63
2022-10-05T11:24:38.673Z,97084.56
2022-10-05T11:27:43.679Z,97076.72
2022-10-05T11:30:50.323Z,97080.94
2022-10-05T11:34:13.441Z,97065.53
2022-10-05T11:37:04.304Z,97060.72
2022-10-05T11:40:14.649Z,97060.94
2022-10-05T11:43:17.733Z,97057.81
2022-10-05T11:46:20.245Z,97063.03
2022-10-05T11:49:22.131Z,97047.75
2022-10-05T11:51:57.711Z,97042.50
2022-10-05T11:55:10.554Z,97047.50
2022-10-05T11:57:49.589Z,97039.72
2022-10-05T12:00:22.844Z,97032.34
2022-10-05T12:03:26.051Z,97038.06
2022-10-05T12:06:17.726Z,97019.22
2022-10-05T12:09:14.571Z,97017.16
2022-10-05T12:12:05.909Z,97025.25
2022-10-05T12:15:00.812Z,97019.44
2022-10-05T12:17:44.418Z,97013.38
2022-10-05T12:20:24.796Z,97015.47
2022-10-05T12:23:28.307Z,97004.69
2022-10-05T12:26:04.588Z,97005.25
2022-10-05T12:28:42.323Z,97000.84
2022-10-05T12:31:42.829Z,97000.84
2022-10-05T12:34:49.998Z,96987.34
2022-10-05T12:37:42.039Z,96991.13
2022-10-05T12:40:24.018Z,96991.69
2022-10-05T12:43:18.413Z,96989.34
2022-10-05T12:46:21.613Z,96984.28
2022-10-05T12:49:21.669Z,96988.88
2022-10-05T12:51:58.761Z,96985.00
2022-10-05T12:54:33.926Z,96978.69
2022-10-05T12:57:40.998Z,96983.34
2022-10-05T13:00:22.706Z,96979.97
2022-10-05T13:03:28.574Z,96981.63
2022-10-05T13:06:26.425Z,96978.22
2022-10-05T13:09:11.436Z,96976.50
2022-10-05T13:11:46.224Z,96975.88
2022-10-05T13:14:54.797Z,96972.88
2022-10-05T13:18:08.032Z,96972.28
2022-10-05T13:20:45.602Z,96973.00
2022-10-05T13:23:26.301Z,96964.06
2022-10-05T13:26:03.426Z,96963.84
2022-10-05T13:28:59.550Z,96965.00
2022-10-05T13:31:42.749Z,96961.81
2022-10-05T13:34:40.254Z,96967.25
2022-10-05T13:37:35.792Z,96957.94
2022-10-05T13:40:21.741Z,96955.72
2022-10-05T13:43:06.636Z,96964.44
2022-10-05T13:45:56.994Z,96959.72
2022-10-05T13:48:58.179Z,96956.94
2022-10-05T13:51:53.548Z,96963.72
2022-10-05T13:54:32.678Z,96967.19
2022-10-05T13:57:24.800Z,96959.69
2022-10-05T13:59:57.470Z,96964.75
2022-10-05T14:02:38.418Z,96963.34
2022-10-05T14:05:20.957Z,96965.47
2022-10-05T14:08:04.121Z,96961.34
2022-10-05T14:10:33.886Z,96949.84
2022-10-05T14:13:20.056Z,96961.66
2022-10-05T14:16:23.292Z,96960.28
2022-10-05T14:19:27.953Z,96954.94
2022-10-05T14:22:02.117Z,96950.56
2022-10-05T14:24:44.599Z,96943.69
2022-10-05T14:27:35.120Z,96945.81
2022-10-05T14:30:11.955Z,96940.50
2022-10-05T14:32:59.101Z,96938.91
2022-10-05T14:35:31.101Z,96939.91
2022-10-05T14:38:01.540Z,96939.09
2022-10-05T14:40:34.107Z,96933.69
2022-10-05T14:43:16.615Z,96938.94
2022-10-05T14:46:23.366Z,96934.81
2022-10-05T14:49:12.954Z,96943.28
2022-10-05T14:51:42.151Z,96937.53
2022-10-05T14:54:59.149Z,96933.75
2022-10-05T14:58:03.305Z,96934.16
2022-10-05T15:00:40.110Z,96926.38
2022-10-05T15:03:35.885Z,96926.53
2022-10-05T15:06:11.743Z,96924.97
2022-10-05T15:09:17.026Z,96929.50
2022-10-05T15:11:55.919Z,96918.09
2022-10-05T15:14:32.622Z,96918.25
2022-10-05T15:17:29.512Z,96923.78
2022-10-05T15:20:16.140Z,96920.19
2022-10-05T15:22:50.341Z,96921.91
2022-10-05T15:25:27.795Z,96915.53
2022-10-05T15:28:19.190Z,96918.16
2022-10-05T15:31:16.240Z,96917.53
2022-10-05T15:33:53.705Z,96916.34
2022-10-05T15:36:35.562Z,96919.28
2022-10-05T15:39:12.521Z,96921.50
2022-10-05T15:42:00.357Z,96919.38
2022-10-05T15:44:57.487Z,96918.38
2022-10-05T15:48:04.336Z,96914.13
2022-10-05T15:51:15.374Z,96908.81
2022-10-05T15:54:17.709Z,96913.66
2022-10-05T15:57:34.641Z,96922.25
2022-10-05T16:00:11.020Z,96914.97
2022-10-05T16:02:42.116Z,96914.41
2022-10-05T16:05:55.812Z,96923.19
2022-10-05T16:08:55.762Z,96925.19
2022-10-05T16:12:02.431Z,96920.41
2022-10-05T16:14:35.279Z,96921.06
2022-10-05T16:17:40.907Z,96923.41
2022-10-05T16:20:28.899Z,96926.25
2022-10-05T16:23:23.192Z,96920.78
2022-10-05T16:26:36.415Z,96932.19
2022-10-05T16:29:16.299Z,96933.66
2022-10-05T16:32:07.609Z,96929.19
2022-10-05T16:35:24.878Z,96937.94
2022-10-05T16:38:13.190Z,96930.97
2022-10-05T16:41:09.520Z,96943.28
2022-10-05T16:44:03.458Z,96940.34
2022-10-05T16:46:40.009Z,96938.19
2022-10-05T16:49:21.954Z,96948.16
2022-10-05T16:52:00.228Z,96949.28
2022-10-05T16:55:03.393Z,96947.59
2022-10-05T16:57:37.701Z,96958.94
2022-10-05T17:00:20.849Z,96952.94
2022-10-05T17:03:21.945Z,96952.03
2022-10-05T17:06:15.544Z,96963.91
2022-10-05T17:09:32.003Z,96963.63
2022-10-05T17:12:32.731Z,96965.88
2022-10-05T17:15:14.782Z,96975.63
2022-10-05T17:18:16.578Z,96975.59
2022-10-05T17:21:15.646Z,96982.13
2022-10-05T17:24:07.555Z,96993.75
2022-10-05T17:26:56.465Z,96989.09
2022-10-05T17:29:26.471Z,96999.59
2022-10-05T17:32:33.573Z,96997.50
2022-10-05T17:35:02.894Z,96993.91
2022-10-05T17:37:39.152Z,96991.75
2022-10-05T17:40:32.534Z,96998.84
2022-10-05T17:43:15.382Z,97007.22
2022-10-05T17:45:42.037Z,97007.22
2022-10-05T17:48:12.847Z,97013.88
2022-10-05T17:51:07.202Z,97017.84
2022-10-05T17:54:01.728Z,97013.56
2022-10-05T17:56:30.634Z,97011.47
2022-10-05T17:59:02.517Z,97018.53
2022-10-05T18:01:39.156Z,97018.69
2022-10-05T18:04:12.093Z,97020.88
2022-10-05T18:06:48.042Z,97030.94
2022-10-05T18:09:20.278Z,97026.66
2022-10-05T18:12:11.250Z,97029.63
2022-10-05T18:15:23.127Z,97031.44
2022-10-05T18:17:57.124Z,97034.41
2022-10-05T18:20:32.054Z,97035.09
2022-10-05T18:23:09.412Z,97040.06
2022-10-05T18:26:16.198Z,97050.94
2022-10-05T18:28:48.808Z,97055.63
2022-10-05T18:31:36.850Z,97052.13
2022-10-05T18:34:20.144Z,97058.69
2022-10-05T18:37:00.801Z,97064.00
2022-10-05T18:40:03.179Z,97072.97
2022-10-05T18:42:40.086Z,97076.25
2022-10-05T18:45:39.396Z,97075.03
2022-10-05T18:48:46.843Z,97084.84
2022-10-05T18:51:51.649Z,97079.09
2022-10-05T18:55:05.520Z,97083.59
2022-10-05T18:58:05.538Z,97083.59
2022-10-05T19:01:09.503Z,97099.09
2022-10-05T19:04:04.789Z,97097.25
2022-10-05T19:06:56.730Z,97096.22
2022-10-05T19:10:08.824Z,97098.84
2022-10-05T19:13:01.941Z,97104.75
2022-10-05T19:15:50.373Z,97098.41
2022-10-05T19:18:37.276Z,97108.44
2022-10-05T19:21:35.533Z,97107.75
2022-10-05T19:24:22.626Z,97116.47
2022-10-05T19:27:11.805Z,97117.25
2022-10-05T19:30:17.938Z,97120.47
2022-10-05T19:33:22.029Z,97122.66
2022-10-05T19:36:04.824Z,97120.38
2022-10-05T19:38:37.365Z,97121.81
2022-10-05T19:41:22.430Z,97126.09
2022-10-05T19:44:14.017Z,97129.34
2022-10-05T19:46:52.615Z,97137.16
2022-10-05T19:49:54.255Z,97132.66
2022-10-05T19:52:47.545Z,97142.16
2022-10-05T19:55:24.112Z,97139.47
2022-10-05T19:57:57.924Z,97150.44
2022-10-05T20:00:26.165Z,97145.19
2022-10-05T20:03:09.962Z,97149.97
2022-10-05T20:05:36.850Z,97147.59
2022-10-05T20:08:06.105Z,97149.59
2022-10-05T20:10:33.130Z,97151.19
2022-10-05T20:13:03.870Z,97165.88
2022-10-05T20:15:54.846Z,97159.16
2022-10-05T20:19:06.949Z,97155.59
2022-10-05T20:22:00.508Z,97178.34
2022-10-05T20:24:49.608Z,97172.56
2022-10-05T20:27:52.081Z,97186.47
2022-10-05T20:30:22.584Z,97184.31
2022-10-05T20:32:51.120Z,97190.59
2022-10-05T20:35:22.979Z,97194.25
2022-10-05T20:37:52.309Z,97197.53
2022-10-05T20:40:20.304Z,97191.50
2022-10-05T20:42:47.834Z,97197.25
2022-10-05T20:45:14.671Z,97198.91
2022-10-05T20:47:42.331Z,97204.72
2022-10-05T20:50:10.611Z,97200.97
2022-10-05T20:52:38.279Z,97211.69
2022-10-05T20:55:09.912Z,97212.88
2022-10-05T20:57:42.187Z,97215.34
2022-10-05T21:00:11.502Z,97219.63
2022-10-05T21:02:39.394Z,97227.09
2022-10-05T21:05:07.660Z,97222.00
2022-10-05T21:07:34.826Z,97220.09
2022-10-05T21:10:03.622Z,97224.94
2022-10-05T21:12:30.509Z,97226.13
2022-10-05T21:14:59.181Z,97234.28
2022-10-05T21:17:25.979Z,97235.47
2022-10-05T21:19:52.729Z,97229.38
2022-10-05T21:22:19.555Z,97241.94
2022-10-05T21:24:46.669Z,97235.84
2022-10-05T21:27:13.456Z,97244.31
2022-10-05T21:29:44.111Z,97236.78
2022-10-05T21:32:11.777Z,97245.84
2022-10-05T21:34:39.973Z,97245.84
2022-10-05T21:37:07.861Z,97262.50
2022-10-05T21:39:35.268Z,97247.50
2022-10-05T21:42:02.201Z,97250.22
2022-10-05T21:44:29.020Z,97250.47
2022-10-05T21:46:56.532Z,97251.38
2022-10-05T21:49:24.449Z,97262.63
2022-10-05T21:51:51.462Z,97258.69
2022-10-05T21:54:21.477Z,97255.78
2022-10-05T21:56:54.781Z,97269.34
2022-10-05T21:59:28.443Z,97268.06
2022-10-05T22:01:55.258Z,97272.09
2022-10-05T22:04:22.236Z,97267.03
2022-10-05T22:06:49.161Z,97269.66
2022-10-05T22:09:15.973Z,97265.78
2022-10-05T22:11:45.685Z,97275.06
2022-10-05T22:14:15.456Z,97279.59
2022-10-05T22:16:43.993Z,97289.22
2022-10-05T22:19:19.932Z,97281.84
2022-10-05T22:21:47.071Z,97289.59
2022-10-05T22:24:13.861Z,97283.66
2022-10-05T22:26:43.915Z,97279.78
2022-10-05T22:29:10.848Z,97283.41
2022-10-05T22:31:38.341Z,97289.06
2022-10-05T22:34:05.673Z,97288.16
2022-10-05T22:36:35.302Z,97296.63
2022-10-05T22:39:02.405Z,97288.78
2022-10-05T22:41:29.263Z,97293.00
2022-10-05T22:43:56.028Z,97292.94
2022-10-05T22:46:22.909Z,97290.31
2022-10-05T22:48:49.753Z,97298.22
2022-10-05T22:51:16.565Z,97295.91
2022-10-05T22:53:43.397Z,97304.53
2022-10-05T22:56:13.980Z,97302.28
2022-10-05T22:58:42.558Z,97302.63
2022-10-05T23:01:13.136Z,97309.53
2022-10-05T23:03:40.886Z,97320.41
2022-10-05T23:06:19.922Z,97315.53
2022-10-05T23:08:47.009Z,97321.59
2022-10-05T23:11:26.854Z,97321.50
2022-10-05T23:13:57.975Z,97325.47
2022-10-05T23:16:28.012Z,97330.13
2022-10-05T23:18:55.071Z,97324.91
2022-10-05T23:21:23.944Z,97338.44
2022-10-05T23:23:53.818Z,97336.81
2022-10-05T23:26:23.908Z,97332.53
2022-10-05T23:28:50.923Z,97342.47
2022-10-05T23:31:22.067Z,97344.47
2022-10-05T23:33:48.950Z,97355.34
2022-10-05T23:36:19.884Z,97361.53
2022-10-05T23:38:47.127Z,97353.69
2022-10-05T23:41:14.193Z,97359.31
2022-10-05T23:43:41.001Z,97361.53
2022-10-05T23:46:08.919Z,97361.38
2022-10-05T23:48:38.888Z,97359.19
2022-10-05T23:51:08.566Z,97370.72
2022-10-05T23:53:35.657Z,97370.91
2022-10-05T23:56:03.344Z,97366.09
2022-10-05T23:58:30.910Z,97374.03
